This is the latest recevied weather packets stored in our database for station/object WC4PEM-15. If no packets are shown the sender has not sent any weather packets the latest 10 day(s).
| Time | Temp. | Humidity | Pressure | Rain* | Wind** | Luminosity | Snow |
|---|---|---|---|---|---|---|---|
| 1777665618 | 31.67° C | 46% | 1009.6 hPa | 0 mm | - | - | - |
| 1777665318 | 32.22° C | 47% | 1009.6 hPa | 0 mm | - | - | - |
| 1777665018 | 31.67° C | 48% | 1009.7 hPa | 0 mm | - | - | - |
| 1777664718 | 31.67° C | 47% | 1009.8 hPa | 0 mm | - | - | - |
| 1777664553 | 31.67° C | 47% | 1009.9 hPa | 0 mm | - | - | - |
| 1777664418 | 31.67° C | 47% | 1009.9 hPa | 0 mm | - | - | - |
| 1777664118 | 32.22° C | 47% | 1010.2 hPa | 0 mm | - | - | - |
| 1777663818 | 32.22° C | 46% | 1010.3 hPa | 0 mm | - | - | - |
| 1777663518 | 31.67° C | 47% | 1010.3 hPa | 0 mm | - | - | - |
| 1777663218 | 31.11° C | 48% | 1010.3 hPa | 0 mm | - | - | - |
| 1777662918 | 30.56° C | 49% | 1010.6 hPa | 0 mm | - | - | - |
| 1777662618 | 31.11° C | 49% | 1010.6 hPa | 0 mm | - | - | - |
| 1777662318 | 31.67° C | 48% | 1010.6 hPa | 0 mm | - | - | - |
| 1777662018 | 31.11° C | 49% | 1010.8 hPa | 0 mm | - | - | - |
| 1777661718 | 31.11° C | 50% | 1010.8 hPa | 0 mm | - | - | - |
| 1777661418 | 31.11° C | 50% | 1010.8 hPa | 0 mm | - | - | - |
| 1777661216 | 31.11° C | 48% | 1010.8 hPa | 0 mm | - | - | - |
| 1777661118 | 31.11° C | 48% | 1010.8 hPa | 0 mm | - | - | - |
| 1777660818 | 31.67° C | 45% | 1010.9 hPa | 0 mm | - | - | - |
| 1777660518 | 31.11° C | 48% | 1011 hPa | 0 mm | - | - | - |
| 1777660218 | 31.67° C | 47% | 1010.9 hPa | 0 mm | - | - | - |
| 1777659918 | 31.11° C | 49% | 1011.1 hPa | 0 mm | - | - | - |
| 1777659618 | 31.11° C | 50% | 1011.1 hPa | 0 mm | - | - | - |
| 1777659507 | 31.11° C | 49% | 1011.1 hPa | 0 mm | - | - | - |
| 1777659318 | 31.11° C | 49% | 1011.1 hPa | 0 mm | - | - | - |
* Rain latest hour (hover to see other rain measurements)
** Current wind speed in m/s (hover to see current wind gust speed)